Time;durP1;ratioP1;P1;durP2;ratioP2;P2;SDS_P1;SDS_P2;PMS_P1;PMS_P2;Temp;Humidity;BMP_temperature;BMP_pressure;BME280_temperature;BME280_humidity;BME280_pressure;Samples;Min_cycle;Max_cycle;Signal;HPM_P1;HPM_P2
2023/08/24 00:01:14;;;;;;;5.30;4.60;;;19.30;99.90;;;;;;5067131;28;20912;-68
2023/08/24 00:03:41;;;;;;;4.70;4.30;;;19.30;99.90;;;;;;5067409;28;20455;-68
2023/08/24 00:06:07;;;;;;;4.73;4.33;;;19.30;99.90;;;;;;5067554;28;20462;-68
2023/08/24 00:08:34;;;;;;;4.73;4.20;;;19.20;99.90;;;;;;5067283;28;20465;-67
2023/08/24 00:11:03;;;;;;;5.13;4.70;;;19.20;99.90;;;;;;5050479;28;20479;-68
2023/08/24 00:13:30;;;;;;;4.20;3.90;;;19.10;99.90;;;;;;5047245;28;20455;-68
2023/08/24 00:15:56;;;;;;;5.77;4.60;;;19.10;99.90;;;;;;5046773;28;20463;-68
2023/08/24 00:18:23;;;;;;;4.80;4.40;;;19.10;99.90;;;;;;5046648;28;20486;-68
2023/08/24 00:20:50;;;;;;;5.30;4.80;;;19.10;99.90;;;;;;5046720;28;20981;-68
2023/08/24 00:23:18;;;;;;;5.50;5.10;;;19.10;99.90;;;;;;5047180;28;20463;-68
2023/08/24 00:25:45;;;;;;;4.10;3.67;;;19.00;99.90;;;;;;5047261;28;20501;-67
2023/08/24 00:28:13;;;;;;;5.07;4.57;;;19.00;99.90;;;;;;5046928;28;20532;-68
2023/08/24 00:30:40;;;;;;;5.47;4.20;;;19.00;99.90;;;;;;5046751;28;21053;-68
2023/08/24 00:33:07;;;;;;;7.00;4.97;;;19.00;99.90;;;;;;5047273;28;20454;-67
2023/08/24 00:35:33;;;;;;;5.27;4.37;;;19.00;99.90;;;;;;5047514;28;20463;-68
2023/08/24 00:38:00;;;;;;;4.50;4.10;;;18.90;99.90;;;;;;5046987;28;21140;-67
2023/08/24 00:40:27;;;;;;;4.80;4.40;;;18.90;99.90;;;;;;5046972;28;20484;-67
2023/08/24 00:42:54;;;;;;;5.87;3.83;;;18.90;99.90;;;;;;5039104;28;20467;-67
2023/08/24 00:45:22;;;;;;;4.67;4.30;;;18.80;99.90;;;;;;5046950;28;20478;-68
2023/08/24 00:47:49;;;;;;;4.57;4.17;;;18.90;99.90;;;;;;5046828;28;20462;-68
2023/08/24 00:50:18;;;;;;;4.50;4.10;;;18.80;99.90;;;;;;5046594;28;20486;-68
2023/08/24 00:52:46;;;;;;;6.60;5.20;;;18.80;99.90;;;;;;5047206;28;20519;-68
2023/08/24 00:55:13;;;;;;;5.30;4.00;;;18.80;99.90;;;;;;5046973;28;20456;-68
2023/08/24 00:57:41;;;;;;;5.07;4.67;;;18.70;99.90;;;;;;5046686;28;20489;-67
2023/08/24 01:00:10;;;;;;;5.37;4.90;;;18.70;99.90;;;;;;5046596;28;20892;-67
2023/08/24 01:02:38;;;;;;;7.30;5.13;;;18.70;99.90;;;;;;5046938;28;20978;-67
2023/08/24 01:05:05;;;;;;;4.20;3.90;;;18.70;99.90;;;;;;5046747;28;20967;-67
2023/08/24 01:07:34;;;;;;;5.10;4.50;;;18.70;99.90;;;;;;5046579;28;20455;-68
2023/08/24 01:10:02;;;;;;;5.17;4.67;;;18.70;99.90;;;;;;5046591;28;20822;-68
2023/08/24 01:12:39;;;;;;;8.13;4.97;;;18.70;99.90;;;;;;5046518;28;20953;-68
2023/08/24 01:15:14;;;;;;;6.50;5.10;;;18.70;99.90;;;;;;5040241;28;20463;-68
2023/08/24 01:17:44;;;;;;;5.23;4.70;;;18.60;99.90;;;;;;5046475;28;20486;-68
2023/08/24 01:20:11;;;;;;;4.53;4.13;;;18.60;99.90;;;;;;5045990;28;20511;-67
2023/08/24 01:22:47;;;;;;;5.57;5.13;;;18.60;99.90;;;;;;5125501;22;20495;-66
2023/08/24 01:25:17;;;;;;;4.47;4.07;;;18.60;99.90;;;;;;5073182;28;20943;-67
2023/08/24 01:27:48;;;;;;;5.40;4.90;;;18.60;99.90;;;;;;5069221;28;20454;-66
2023/08/24 01:30:16;;;;;;;4.77;4.33;;;18.60;99.90;;;;;;5072641;28;20471;-66
2023/08/24 01:32:43;;;;;;;4.50;4.13;;;18.60;99.90;;;;;;5072649;28;20476;-66
2023/08/24 01:35:10;;;;;;;4.80;4.33;;;18.50;99.90;;;;;;5072831;28;20451;-66
2023/08/24 01:37:38;;;;;;;6.17;4.77;;;18.50;99.90;;;;;;5071599;28;20573;-66
2023/08/24 01:40:09;;;;;;;5.10;4.70;;;18.50;99.90;;;;;;5072589;28;20474;-66
2023/08/24 01:42:43;;;;;;;5.27;4.80;;;18.50;99.90;;;;;;5072360;28;20547;-66
2023/08/24 01:45:13;;;;;;;5.37;4.90;;;18.50;99.90;;;;;;5072657;28;20454;-66
2023/08/24 01:47:42;;;;;;;5.30;4.90;;;18.50;99.90;;;;;;5072023;28;20458;-66
2023/08/24 01:50:10;;;;;;;5.40;4.90;;;18.40;99.90;;;;;;5072263;28;20504;-66
2023/08/24 01:52:37;;;;;;;6.27;5.23;;;18.40;99.90;;;;;;5072273;28;20461;-66
2023/08/24 01:55:04;;;;;;;5.57;5.07;;;18.40;99.90;;;;;;5072328;28;20461;-66
2023/08/24 01:57:30;;;;;;;5.40;5.00;;;18.40;99.90;;;;;;5072014;28;21003;-66
2023/08/24 01:59:57;;;;;;;4.90;4.50;;;18.40;99.90;;;;;;5072034;28;20473;-66
2023/08/24 02:02:26;;;;;;;6.67;4.87;;;18.40;99.90;;;;;;5071924;28;20452;-66
2023/08/24 02:04:52;;;;;;;4.60;4.20;;;18.30;99.90;;;;;;5071967;28;20459;-66
2023/08/24 02:07:19;;;;;;;5.90;4.73;;;18.40;99.90;;;;;;5071999;28;20472;-66
2023/08/24 02:09:46;;;;;;;5.33;4.83;;;18.40;99.90;;;;;;5071822;28;20485;-66
2023/08/24 02:12:12;;;;;;;5.50;5.00;;;18.30;99.90;;;;;;5071895;28;20484;-66
2023/08/24 02:14:39;;;;;;;5.10;4.70;;;18.30;99.90;;;;;;5071797;28;20456;-66
2023/08/24 02:17:06;;;;;;;5.00;4.60;;;18.30;99.90;;;;;;5071815;28;20867;-66
2023/08/24 02:19:34;;;;;;;4.90;4.40;;;18.30;99.90;;;;;;5071788;28;20484;-66
2023/08/24 02:22:01;;;;;;;5.03;4.53;;;18.30;99.90;;;;;;5071375;28;20464;-66
2023/08/24 02:24:27;;;;;;;4.83;4.43;;;18.20;99.90;;;;;;5071768;28;20826;-66
2023/08/24 02:26:54;;;;;;;5.40;4.87;;;18.30;99.90;;;;;;5071881;28;20468;-67
2023/08/24 02:29:21;;;;;;;8.53;5.60;;;18.20;99.90;;;;;;5065609;28;21019;-66
2023/08/24 02:31:50;;;;;;;6.00;5.40;;;18.20;99.90;;;;;;5068353;28;20456;-66
2023/08/24 02:34:17;;;;;;;4.90;4.50;;;18.20;99.90;;;;;;5065367;28;20470;-66
2023/08/24 02:36:45;;;;;;;5.30;4.90;;;18.20;99.90;;;;;;5054505;28;20534;-66
2023/08/24 02:39:12;;;;;;;5.20;4.70;;;18.20;99.90;;;;;;5057896;28;20482;-66
2023/08/24 02:41:39;;;;;;;5.17;4.73;;;18.20;99.90;;;;;;5051139;28;20486;-66
2023/08/24 02:44:06;;;;;;;5.13;4.73;;;18.10;99.90;;;;;;5063641;28;20470;-66
2023/08/24 02:46:32;;;;;;;6.00;5.50;;;18.10;99.90;;;;;;5063131;28;20474;-66
2023/08/24 02:48:59;;;;;;;5.70;5.20;;;18.10;99.90;;;;;;5062961;28;20832;-66
2023/08/24 02:51:26;;;;;;;5.43;4.93;;;18.10;99.90;;;;;;5062909;28;20462;-66
2023/08/24 02:53:54;;;;;;;5.23;4.80;;;18.10;99.90;;;;;;5061454;28;20463;-66
2023/08/24 02:56:21;;;;;;;5.10;4.70;;;18.20;99.90;;;;;;5056825;28;20455;-66
2023/08/24 02:58:47;;;;;;;5.67;5.27;;;18.10;99.90;;;;;;5062040;28;20487;-66
2023/08/24 03:01:14;;;;;;;5.33;4.93;;;18.10;99.90;;;;;;5059500;28;20540;-66
2023/08/24 03:03:41;;;;;;;8.10;4.63;;;18.10;99.90;;;;;;5051397;28;20461;-66
2023/08/24 03:06:08;;;;;;;5.73;5.23;;;18.10;99.90;;;;;;5051965;28;20462;-66
2023/08/24 03:08:35;;;;;;;6.00;5.40;;;18.10;99.90;;;;;;5059615;28;20539;-66
2023/08/24 03:11:03;;;;;;;6.37;5.80;;;18.10;99.90;;;;;;5070132;28;20481;-66
2023/08/24 03:13:31;;;;;;;6.80;5.23;;;18.10;99.90;;;;;;5055993;28;20468;-66
2023/08/24 03:15:58;;;;;;;5.93;5.20;;;18.10;99.90;;;;;;5050826;28;20470;-66
2023/08/24 03:18:24;;;;;;;5.73;4.77;;;18.10;99.90;;;;;;5050715;28;21036;-66
2023/08/24 03:20:51;;;;;;;6.30;5.70;;;18.10;99.90;;;;;;5068144;28;20476;-66
2023/08/24 03:23:18;;;;;;;6.37;5.30;;;18.10;99.90;;;;;;5070616;28;20477;-66
2023/08/24 03:25:45;;;;;;;5.90;5.30;;;18.10;99.90;;;;;;5070695;28;20453;-66
2023/08/24 03:28:13;;;;;;;4.90;4.40;;;18.10;99.90;;;;;;5070715;28;20460;-66
2023/08/24 03:30:46;;;;;;;6.80;5.60;;;18.10;99.90;;;;;;5070418;28;20485;-66
2023/08/24 03:33:12;;;;;;;4.83;4.43;;;18.10;99.90;;;;;;5070859;28;20461;-66
2023/08/24 03:35:40;;;;;;;5.57;5.07;;;18.10;99.90;;;;;;5070837;28;20461;-66
2023/08/24 03:38:07;;;;;;;5.73;5.30;;;18.10;99.90;;;;;;5070353;28;20488;-66
2023/08/24 03:40:34;;;;;;;5.60;5.10;;;18.10;99.90;;;;;;5070386;28;20487;-66
2023/08/24 03:43:02;;;;;;;5.40;5.00;;;18.10;99.90;;;;;;5070626;28;20460;-66
2023/08/24 03:45:30;;;;;;;5.77;5.07;;;18.10;99.90;;;;;;5070516;28;20452;-66
2023/08/24 03:47:57;;;;;;;5.50;5.00;;;18.10;99.90;;;;;;5052305;28;20462;-66
2023/08/24 03:50:23;;;;;;;9.90;5.47;;;18.10;99.90;;;;;;5050143;28;20553;-66
2023/08/24 03:52:51;;;;;;;7.10;5.90;;;18.00;99.90;;;;;;5050628;28;20831;-66
2023/08/24 03:55:18;;;;;;;6.03;5.53;;;18.00;99.90;;;;;;5050598;28;20940;-66
2023/08/24 03:57:45;;;;;;;6.30;5.63;;;18.00;99.90;;;;;;5050371;28;20491;-66
2023/08/24 04:00:14;;;;;;;6.60;6.00;;;18.00;99.90;;;;;;5050022;28;20532;-66
2023/08/24 04:02:42;;;;;;;6.00;5.47;;;18.00;99.90;;;;;;5050514;28;21031;-66
2023/08/24 04:05:09;;;;;;;6.40;5.80;;;18.00;99.90;;;;;;5050577;28;20840;-66
2023/08/24 04:07:38;;;;;;;6.03;5.53;;;18.10;99.90;;;;;;5050278;28;20487;-66
2023/08/24 04:10:05;;;;;;;5.40;4.83;;;18.10;99.90;;;;;;5050299;28;20914;-66
2023/08/24 04:12:32;;;;;;;5.77;5.27;;;18.10;99.90;;;;;;5050016;28;20469;-66
2023/08/24 04:14:59;;;;;;;6.03;5.27;;;18.10;99.90;;;;;;5050132;28;20455;-66
2023/08/24 04:17:26;;;;;;;5.90;5.00;;;18.10;99.90;;;;;;5049955;28;20466;-66
2023/08/24 04:19:54;;;;;;;6.87;5.70;;;18.10;99.90;;;;;;5050060;28;20478;-66
2023/08/24 04:22:21;;;;;;;5.23;4.83;;;18.10;99.90;;;;;;5049805;28;20466;-66
2023/08/24 04:24:47;;;;;;;5.73;5.20;;;18.20;99.90;;;;;;5050415;28;20870;-66
2023/08/24 04:27:14;;;;;;;5.40;5.00;;;18.20;99.90;;;;;;5050035;28;20454;-66
2023/08/24 04:29:41;;;;;;;6.27;5.53;;;18.20;99.90;;;;;;5050147;28;20493;-66
2023/08/24 04:32:08;;;;;;;6.80;5.73;;;18.20;99.90;;;;;;5049799;28;20453;-66
2023/08/24 04:34:34;;;;;;;5.90;5.40;;;18.20;99.90;;;;;;5049904;28;20470;-66
2023/08/24 04:37:02;;;;;;;7.93;6.60;;;18.20;99.90;;;;;;5049866;28;20468;-66
2023/08/24 04:39:30;;;;;;;5.17;4.70;;;18.20;99.90;;;;;;5049740;28;20485;-65
2023/08/24 04:41:57;;;;;;;5.77;5.27;;;18.20;99.90;;;;;;5049732;28;20505;-67
2023/08/24 04:44:24;;;;;;;6.30;5.80;;;18.30;99.90;;;;;;5049738;28;20458;-66
2023/08/24 04:46:51;;;;;;;5.90;5.30;;;18.30;99.90;;;;;;5050081;28;20941;-66
2023/08/24 04:49:17;;;;;;;5.53;5.07;;;18.30;99.90;;;;;;5041792;28;20482;-66
2023/08/24 04:51:44;;;;;;;6.53;5.90;;;18.30;99.90;;;;;;5049690;28;20468;-66
2023/08/24 04:54:12;;;;;;;6.47;5.87;;;18.30;99.90;;;;;;5049838;28;20465;-66
2023/08/24 04:56:39;;;;;;;5.50;5.00;;;18.30;99.90;;;;;;5049987;28;20461;-66
2023/08/24 04:59:07;;;;;;;5.33;4.90;;;18.30;99.90;;;;;;5049744;28;20886;-66
2023/08/24 05:01:35;;;;;;;6.60;5.20;;;18.30;99.90;;;;;;5049414;28;20465;-66
2023/08/24 05:04:02;;;;;;;5.33;4.73;;;18.30;99.90;;;;;;5052121;28;20472;-66
2023/08/24 05:06:28;;;;;;;6.50;5.90;;;18.30;99.90;;;;;;5053630;28;20862;-66
2023/08/24 05:08:55;;;;;;;5.33;4.90;;;18.30;99.90;;;;;;5053238;28;20454;-66
2023/08/24 05:11:28;;;;;;;6.80;6.20;;;18.40;99.90;;;;;;5053295;28;20826;-66
2023/08/24 05:13:55;;;;;;;6.60;4.60;;;18.40;99.90;;;;;;5053409;28;20464;-65
2023/08/24 05:16:22;;;;;;;6.00;5.50;;;18.40;99.90;;;;;;5053366;28;20461;-66
2023/08/24 05:18:49;;;;;;;5.57;5.00;;;18.40;99.90;;;;;;5053234;28;20492;-66
2023/08/24 05:21:16;;;;;;;5.57;5.17;;;18.50;99.90;;;;;;5072448;28;20461;-65
2023/08/24 05:23:43;;;;;;;6.03;5.53;;;18.50;99.90;;;;;;5073242;28;20461;-66
2023/08/24 05:26:09;;;;;;;7.73;5.97;;;18.60;99.90;;;;;;5072925;28;20461;-65
2023/08/24 05:28:37;;;;;;;6.40;5.40;;;18.60;99.90;;;;;;5072663;28;20455;-66
2023/08/24 05:31:04;;;;;;;6.40;5.80;;;18.70;99.90;;;;;;5072573;28;20471;-65
2023/08/24 05:33:33;;;;;;;6.20;5.60;;;18.70;99.90;;;;;;5073254;28;20829;-66
2023/08/24 05:35:59;;;;;;;6.23;5.70;;;18.70;99.90;;;;;;5073099;28;20575;-65
2023/08/24 05:38:26;;;;;;;6.03;5.20;;;18.80;99.90;;;;;;5072784;28;20477;-66
2023/08/24 05:40:53;;;;;;;6.40;5.40;;;18.80;99.90;;;;;;5072712;28;20485;-66
2023/08/24 05:43:19;;;;;;;6.07;5.57;;;18.90;99.90;;;;;;5072633;28;20461;-66
2023/08/24 05:45:49;;;;;;;6.30;5.47;;;19.00;99.90;;;;;;5072925;28;20457;-66
2023/08/24 05:48:16;;;;;;;6.57;5.03;;;19.00;99.90;;;;;;5060265;28;20451;-66
2023/08/24 05:50:46;;;;;;;6.33;5.70;;;19.00;99.90;;;;;;5052157;28;20581;-66
2023/08/24 05:53:12;;;;;;;6.00;5.40;;;19.10;99.90;;;;;;5052161;28;20466;-66
2023/08/24 05:55:39;;;;;;;6.60;5.20;;;19.10;99.90;;;;;;5054259;28;20459;-65
2023/08/24 05:58:06;;;;;;;5.50;5.07;;;19.20;99.90;;;;;;5051889;28;20455;-66
2023/08/24 06:00:34;;;;;;;5.27;4.87;;;19.20;99.90;;;;;;5051785;28;20494;-66
2023/08/24 06:03:03;;;;;;;6.27;5.67;;;19.40;99.90;;;;;;5052039;28;20844;-66
2023/08/24 06:05:30;;;;;;;6.37;5.77;;;19.40;99.90;;;;;;5051256;28;20502;-66
2023/08/24 06:07:57;;;;;;;5.67;5.27;;;19.50;99.90;;;;;;5051813;28;20468;-66
2023/08/24 06:10:26;;;;;;;5.90;5.17;;;19.50;99.90;;;;;;5051463;28;20483;-66
2023/08/24 06:12:52;;;;;;;6.00;5.40;;;19.60;99.90;;;;;;5052439;28;20458;-66
2023/08/24 06:15:20;;;;;;;5.80;5.23;;;19.60;99.90;;;;;;5052164;28;20459;-66
2023/08/24 06:17:47;;;;;;;5.60;5.20;;;19.70;99.90;;;;;;5066685;28;20458;-66
2023/08/24 06:20:15;;;;;;;6.03;5.43;;;19.70;99.90;;;;;;5071634;28;20486;-66
2023/08/24 06:22:42;;;;;;;6.20;5.60;;;19.80;99.90;;;;;;5071974;28;20503;-66
2023/08/24 06:25:10;;;;;;;7.17;5.40;;;19.90;99.90;;;;;;5072371;28;20458;-66
2023/08/24 06:27:37;;;;;;;8.87;6.17;;;19.90;99.90;;;;;;5071598;28;20454;-66
2023/08/24 06:30:04;;;;;;;6.43;5.83;;;19.90;99.90;;;;;;5071757;28;20474;-66
2023/08/24 06:32:31;;;;;;;6.40;5.80;;;20.00;99.90;;;;;;5071524;28;20579;-66
2023/08/24 06:34:58;;;;;;;7.23;5.70;;;20.00;99.90;;;;;;5072050;28;20820;-66
2023/08/24 06:37:26;;;;;;;5.80;5.20;;;20.00;99.90;;;;;;5071360;28;20458;-66
2023/08/24 06:39:53;;;;;;;6.90;5.80;;;20.10;99.90;;;;;;5071815;28;20490;-66
2023/08/24 06:42:19;;;;;;;5.67;5.27;;;20.10;99.90;;;;;;5071117;28;20646;-66
2023/08/24 06:44:49;;;;;;;5.30;4.90;;;20.10;99.90;;;;;;5071737;28;20463;-66
2023/08/24 06:47:16;;;;;;;5.70;5.20;;;20.20;99.90;;;;;;5071194;28;20954;-66
2023/08/24 06:49:43;;;;;;;7.27;4.90;;;20.20;99.90;;;;;;5071380;28;20843;-66
2023/08/24 06:52:09;;;;;;;6.07;5.20;;;20.20;99.90;;;;;;5071029;28;20461;-66
2023/08/24 06:54:37;;;;;;;6.47;5.87;;;20.30;99.90;;;;;;5071378;28;20462;-66
2023/08/24 06:57:05;;;;;;;5.97;5.47;;;20.30;99.90;;;;;;5071391;28;21090;-66
2023/08/24 06:59:31;;;;;;;6.10;5.70;;;20.30;99.90;;;;;;5051179;28;20479;-66
2023/08/24 07:01:58;;;;;;;5.80;5.30;;;20.30;99.90;;;;;;5047228;28;20626;-66
2023/08/24 07:04:26;;;;;;;5.07;4.60;;;20.40;99.90;;;;;;5054405;28;21001;-66
2023/08/24 07:06:53;;;;;;;5.20;4.70;;;20.50;99.90;;;;;;5050642;28;20496;-66
2023/08/24 07:09:20;;;;;;;5.27;4.77;;;20.50;99.90;;;;;;5050734;28;20476;-66
2023/08/24 07:11:49;;;;;;;5.47;4.87;;;20.60;99.90;;;;;;5050798;28;21299;-66
2023/08/24 07:14:16;;;;;;;4.67;4.27;;;20.70;99.90;;;;;;5050961;28;20463;-66
2023/08/24 07:16:43;;;;;;;6.67;4.80;;;20.70;99.90;;;;;;5064202;28;20450;-66
2023/08/24 07:19:10;;;;;;;5.40;4.90;;;20.80;99.90;;;;;;5069940;28;20494;-66
2023/08/24 07:21:37;;;;;;;4.77;4.37;;;20.90;99.90;;;;;;5067368;28;20486;-66
2023/08/24 07:24:05;;;;;;;5.33;4.83;;;21.00;99.90;;;;;;5070785;28;20458;-66
2023/08/24 07:26:32;;;;;;;4.50;4.20;;;21.00;99.90;;;;;;5041724;28;20513;-66
2023/08/24 07:29:01;;;;;;;4.33;4.03;;;21.10;99.90;;;;;;5066337;28;20483;-66
2023/08/24 07:31:28;;;;;;;4.80;4.40;;;21.20;99.90;;;;;;5069885;28;20489;-66
2023/08/24 07:33:55;;;;;;;4.50;4.10;;;21.30;99.90;;;;;;5063898;28;20461;-66
2023/08/24 07:36:21;;;;;;;5.03;4.63;;;21.40;99.90;;;;;;5068115;28;20473;-66
2023/08/24 07:38:49;;;;;;;5.80;4.63;;;21.50;99.90;;;;;;5069512;28;20479;-66
2023/08/24 07:41:18;;;;;;;7.40;4.50;;;21.50;99.90;;;;;;5068584;28;20551;-66
2023/08/24 07:43:45;;;;;;;6.10;4.67;;;21.70;99.90;;;;;;5051072;28;20470;-66
2023/08/24 07:46:13;;;;;;;5.00;4.60;;;21.80;99.90;;;;;;5049463;28;20466;-66
2023/08/24 07:48:40;;;;;;;4.80;4.40;;;21.90;99.90;;;;;;5049014;28;20870;-67
2023/08/24 07:51:09;;;;;;;5.10;4.60;;;22.00;99.90;;;;;;5049574;28;20462;-66
2023/08/24 07:53:36;;;;;;;4.60;4.20;;;22.10;99.90;;;;;;5041647;28;20460;-67
2023/08/24 07:56:03;;;;;;;5.13;4.70;;;22.30;99.90;;;;;;5049178;28;20459;-67
2023/08/24 07:58:31;;;;;;;5.17;4.60;;;22.50;99.90;;;;;;5048941;28;20465;-66
2023/08/24 08:00:58;;;;;;;4.67;4.27;;;22.70;99.90;;;;;;5049260;28;20468;-67
2023/08/24 08:03:27;;;;;;;5.17;4.50;;;22.90;99.90;;;;;;5048656;28;21007;-67
2023/08/24 08:05:54;;;;;;;5.17;4.70;;;23.00;99.90;;;;;;5049599;28;20487;-66
2023/08/24 08:08:21;;;;;;;6.13;4.00;;;23.20;99.90;;;;;;5066303;28;20461;-67
2023/08/24 08:10:48;;;;;;;4.50;4.10;;;23.30;99.90;;;;;;5068330;28;20506;-66
2023/08/24 08:13:15;;;;;;;4.93;3.73;;;23.40;99.90;;;;;;5069022;28;20476;-66
2023/08/24 08:15:41;;;;;;;4.77;4.37;;;23.50;99.90;;;;;;5068984;28;20465;-66
2023/08/24 08:18:08;;;;;;;5.67;4.47;;;23.60;99.90;;;;;;5068219;28;20459;-67
2023/08/24 08:20:36;;;;;;;4.30;3.90;;;23.80;99.90;;;;;;5067905;28;21053;-67
2023/08/24 08:23:03;;;;;;;4.50;4.10;;;23.90;99.90;;;;;;5068863;28;20490;-66
2023/08/24 08:25:30;;;;;;;5.77;4.50;;;24.10;99.90;;;;;;5068123;28;20462;-66
2023/08/24 08:27:57;;;;;;;5.40;5.00;;;24.20;99.90;;;;;;5068560;28;20466;-66
2023/08/24 08:30:23;;;;;;;5.33;4.70;;;24.40;99.90;;;;;;5068166;28;20827;-67
2023/08/24 08:32:52;;;;;;;5.00;4.60;;;24.50;99.90;;;;;;5068288;28;20463;-67
2023/08/24 08:35:18;;;;;;;4.73;4.33;;;24.60;99.90;;;;;;5068507;28;20836;-66
2023/08/24 08:37:49;;;;;;;4.57;4.20;;;24.70;99.90;;;;;;5068907;28;20455;-66
2023/08/24 08:40:16;;;;;;;7.60;4.40;;;24.70;99.90;;;;;;5071675;28;20854;-67
2023/08/24 08:42:43;;;;;;;4.63;4.23;;;24.80;99.90;;;;;;5072782;28;20461;-68
2023/08/24 08:45:11;;;;;;;4.80;4.40;;;25.10;99.90;;;;;;5072822;28;20461;-68
2023/08/24 08:47:41;;;;;;;7.00;4.10;;;25.20;99.90;;;;;;5071696;28;20953;-68
2023/08/24 08:50:08;;;;;;;4.10;3.70;;;25.40;99.90;;;;;;5072648;28;20470;-68
2023/08/24 08:52:35;;;;;;;5.17;4.70;;;25.60;99.90;;;;;;5072197;28;20459;-68
2023/08/24 08:55:06;;;;;;;5.13;4.73;;;25.60;99.90;;;;;;5062470;28;20983;-68
2023/08/24 08:57:33;;;;;;;4.17;3.87;;;25.70;99.90;;;;;;5051329;28;20463;-68
2023/08/24 09:00:00;;;;;;;5.97;5.37;;;25.70;99.90;;;;;;5052904;28;20483;-68
2023/08/24 09:02:27;;;;;;;5.50;4.60;;;25.70;99.90;;;;;;5052366;28;20837;-67
2023/08/24 09:04:53;;;;;;;4.17;3.77;;;25.90;99.90;;;;;;5052983;28;20466;-68
2023/08/24 09:07:21;;;;;;;6.13;4.50;;;26.00;99.90;;;;;;5052642;28;20451;-68
2023/08/24 09:09:47;;;;;;;6.60;4.47;;;26.10;99.90;;;;;;5051914;28;20471;-68
2023/08/24 09:12:15;;;;;;;4.90;4.33;;;26.30;99.90;;;;;;5052824;28;20466;-68
2023/08/24 09:14:42;;;;;;;5.60;4.90;;;26.50;99.90;;;;;;5052785;28;20948;-67
2023/08/24 09:17:09;;;;;;;4.87;4.47;;;26.60;99.90;;;;;;5052189;28;20461;-68
2023/08/24 09:19:38;;;;;;;4.43;4.03;;;26.80;99.90;;;;;;5051901;28;20494;-68
2023/08/24 09:22:05;;;;;;;4.37;3.97;;;26.90;99.90;;;;;;5066710;28;20953;-68
2023/08/24 09:24:32;;;;;;;4.93;4.50;;;27.00;99.90;;;;;;5072057;28;20465;-68
2023/08/24 09:26:59;;;;;;;5.03;4.53;;;27.10;99.90;;;;;;5072588;28;20462;-68
2023/08/24 09:29:28;;;;;;;5.13;4.10;;;27.30;99.90;;;;;;5072207;28;20477;-68
2023/08/24 09:31:55;;;;;;;4.67;4.27;;;27.40;99.90;;;;;;5071761;28;20465;-68
2023/08/24 09:34:26;;;;;;;6.03;4.00;;;27.50;99.90;;;;;;5072003;28;20465;-68
2023/08/24 09:36:53;;;;;;;4.87;4.37;;;27.50;99.90;;;;;;5072428;28;21002;-68
2023/08/24 09:39:20;;;;;;;4.97;4.43;;;27.70;99.90;;;;;;5071474;28;20470;-68
2023/08/24 09:41:50;;;;;;;4.60;4.20;;;27.80;99.90;;;;;;5072261;28;20450;-68
2023/08/24 09:44:18;;;;;;;5.17;4.77;;;27.90;99.90;;;;;;5072415;28;20451;-68
2023/08/24 09:46:46;;;;;;;4.20;3.90;;;28.00;99.90;;;;;;5071531;28;20461;-68
2023/08/24 09:49:13;;;;;;;4.00;3.70;;;28.10;99.90;;;;;;5071669;28;20478;-68
2023/08/24 09:51:41;;;;;;;5.00;4.50;;;28.30;99.90;;;;;;5071886;28;20660;-68
2023/08/24 09:54:10;;;;;;;5.00;4.17;;;28.40;99.90;;;;;;5071606;28;20458;-65
2023/08/24 09:56:39;;;;;;;4.33;3.97;;;28.40;99.90;;;;;;5072263;28;20973;-68
2023/08/24 09:59:13;;;;;;;4.77;4.37;;;28.60;99.90;;;;;;5071288;28;20471;-68
2023/08/24 10:01:43;;;;;;;4.73;4.33;;;28.60;99.90;;;;;;5071122;28;20938;-65
2023/08/24 10:04:12;;;;;;;4.47;4.07;;;28.70;99.90;;;;;;5071975;28;20835;-68
2023/08/24 10:06:40;;;;;;;5.40;4.00;;;28.80;99.90;;;;;;5071832;28;20516;-68
2023/08/24 10:09:09;;;;;;;5.50;4.33;;;29.00;99.90;;;;;;5070981;28;20478;-68
2023/08/24 10:11:41;;;;;;;4.37;3.97;;;29.10;99.90;;;;;;5071207;28;20546;-68
2023/08/24 10:14:13;;;;;;;4.70;4.30;;;29.20;99.90;;;;;;5071773;28;20458;-67
2023/08/24 10:16:41;;;;;;;7.13;4.47;;;29.30;99.90;;;;;;5071209;28;20943;-68
2023/08/24 10:19:09;;;;;;;4.43;4.03;;;29.40;99.90;;;;;;5071207;28;20997;-68
2023/08/24 10:21:39;;;;;;;5.17;4.60;;;29.50;99.90;;;;;;5052893;28;20483;-68
2023/08/24 10:24:07;;;;;;;4.47;4.07;;;29.60;99.90;;;;;;5050772;28;20467;-68
2023/08/24 10:26:34;;;;;;;4.63;4.20;;;29.70;99.90;;;;;;5051625;28;20836;-67
2023/08/24 10:29:02;;;;;;;4.03;3.73;;;29.70;99.90;;;;;;5050910;28;20478;-68
2023/08/24 10:31:29;;;;;;;6.60;4.47;;;29.70;99.90;;;;;;5050727;28;20456;-67
2023/08/24 10:33:57;;;;;;;4.37;3.97;;;29.70;99.90;;;;;;5051386;28;20452;-67
2023/08/24 10:36:26;;;;;;;4.90;4.50;;;29.80;99.90;;;;;;5051303;28;20460;-67
2023/08/24 10:38:57;;;;;;;5.13;4.73;;;30.00;99.90;;;;;;5042418;28;20456;-67
2023/08/24 10:41:27;;;;;;;4.80;4.40;;;30.20;99.90;;;;;;5051164;28;20484;-67
2023/08/24 10:44:06;;;;;;;6.40;4.43;;;30.20;99.90;;;;;;5051211;28;20466;-67
2023/08/24 10:46:36;;;;;;;5.00;4.60;;;30.10;99.90;;;;;;5050569;28;20992;-67
2023/08/24 10:49:05;;;;;;;5.57;5.07;;;30.20;99.90;;;;;;5050708;28;20974;-67
2023/08/24 10:51:32;;;;;;;5.17;4.67;;;30.30;99.90;;;;;;5050739;28;20461;-68
2023/08/24 10:54:02;;;;;;;6.00;4.60;;;30.30;99.90;;;;;;5050524;28;20451;-68
2023/08/24 10:56:36;;;;;;;5.00;4.50;;;30.40;99.90;;;;;;5051100;28;20491;-67
2023/08/24 10:59:20;;;;;;;4.70;4.30;;;30.40;99.90;;;;;;5050388;28;20859;-67
2023/08/24 11:01:56;;;;;;;4.80;4.30;;;30.40;99.90;;;;;;5059557;28;20482;-67
2023/08/24 11:04:23;;;;;;;4.93;4.43;;;30.50;99.90;;;;;;5070781;28;20455;-68
2023/08/24 11:06:54;;;;;;;5.03;4.63;;;30.60;99.90;;;;;;5070458;28;20459;-67
2023/08/24 11:09:23;;;;;;;5.23;4.73;;;30.60;99.90;;;;;;5070045;28;20475;-68
2023/08/24 11:12:00;;;;;;;5.00;4.60;;;30.50;99.90;;;;;;5069716;28;20451;-67
2023/08/24 11:14:29;;;;;;;5.50;4.90;;;30.50;99.90;;;;;;5070600;28;20458;-67
2023/08/24 11:16:58;;;;;;;4.70;4.30;;;30.60;99.90;;;;;;5042210;28;20456;-67
2023/08/24 11:19:26;;;;;;;5.00;4.60;;;30.70;99.90;;;;;;5050516;28;20479;-67
2023/08/24 11:21:53;;;;;;;5.93;4.57;;;30.90;99.90;;;;;;5049635;28;20471;-68
2023/08/24 11:24:22;;;;;;;5.37;4.90;;;30.90;99.90;;;;;;5049602;28;20458;-68
2023/08/24 11:26:50;;;;;;;4.93;4.53;;;31.10;99.90;;;;;;5049613;28;20466;-68
2023/08/24 11:29:18;;;;;;;4.90;4.40;;;31.30;99.90;;;;;;5050417;28;20475;-66
2023/08/24 11:31:46;;;;;;;5.40;4.37;;;31.40;99.90;;;;;;5051245;28;20460;-66
2023/08/24 11:34:16;;;;;;;7.70;4.70;;;31.50;99.90;;;;;;5069892;28;20534;-66
2023/08/24 11:36:44;;;;;;;6.03;5.07;;;31.70;99.90;;;;;;5069117;28;20970;-65
2023/08/24 11:39:19;;;;;;;4.83;4.40;;;31.70;99.90;;;;;;5055480;28;20577;-66
2023/08/24 11:41:58;;;;;;;5.23;4.80;;;31.90;99.90;;;;;;5049162;28;20933;-65
2023/08/24 11:44:24;;;;;;;6.40;5.17;;;32.10;99.90;;;;;;5049978;28;20455;-67
2023/08/24 11:46:51;;;;;;;5.27;4.87;;;32.20;99.90;;;;;;5049049;28;20460;-68
2023/08/24 11:49:19;;;;;;;4.90;4.50;;;32.20;99.90;;;;;;5055127;28;20476;-67
2023/08/24 11:51:49;;;;;;;5.20;4.80;;;32.30;99.90;;;;;;5069761;28;20450;-67
2023/08/24 11:54:17;;;;;;;7.03;4.53;;;32.40;99.90;;;;;;5070065;28;20486;-68
2023/08/24 11:56:44;;;;;;;5.10;4.63;;;32.50;99.90;;;;;;5070052;28;20922;-67
2023/08/24 11:59:14;;;;;;;5.87;4.90;;;32.60;99.90;;;;;;5050342;28;20507;-67
2023/08/24 12:01:42;;;;;;;5.13;4.63;;;32.70;99.90;;;;;;5048763;28;20471;-68
2023/08/24 12:04:09;;;;;;;5.37;4.80;;;32.80;99.90;;;;;;5050014;28;20499;-68
2023/08/24 12:06:36;;;;;;;5.73;5.20;;;32.70;99.90;;;;;;5049482;28;20456;-67
2023/08/24 12:09:06;;;;;;;5.37;4.87;;;32.40;99.90;;;;;;5049590;28;20479;-67
2023/08/24 12:11:37;;;;;;;5.50;4.83;;;32.30;99.90;;;;;;5049806;28;20473;-67
2023/08/24 12:14:04;;;;;;;5.40;4.90;;;32.20;99.90;;;;;;5062100;28;20459;-68
2023/08/24 12:16:34;;;;;;;5.87;5.23;;;32.00;99.90;;;;;;5062277;28;20462;-67
2023/08/24 12:19:03;;;;;;;5.00;4.60;;;32.00;99.90;;;;;;5049591;28;20478;-67
2023/08/24 12:21:30;;;;;;;5.17;4.67;;;32.10;99.90;;;;;;5049507;28;20530;-68
2023/08/24 12:23:58;;;;;;;5.10;4.60;;;32.00;99.90;;;;;;5048775;28;20463;-67
2023/08/24 12:26:25;;;;;;;5.43;5.03;;;32.10;99.90;;;;;;5050147;28;20454;-68
2023/08/24 12:28:52;;;;;;;6.10;4.73;;;32.10;99.90;;;;;;5049488;28;20852;-68
2023/08/24 12:31:19;;;;;;;5.10;4.40;;;32.40;99.90;;;;;;5049046;28;20459;-68
2023/08/24 12:33:59;;;;;;;5.40;4.90;;;32.50;99.90;;;;;;5049252;28;20462;-67
2023/08/24 12:36:25;;;;;;;5.07;4.53;;;32.70;99.90;;;;;;5049435;28;20455;-67
2023/08/24 12:38:52;;;;;;;5.73;4.60;;;33.00;99.90;;;;;;5048687;28;20834;-68
2023/08/24 12:41:19;;;;;;;5.03;4.50;;;33.10;99.90;;;;;;5049160;28;20479;-67
2023/08/24 12:43:46;;;;;;;4.93;4.50;;;33.20;99.90;;;;;;5049580;28;20477;-68
2023/08/24 12:46:12;;;;;;;4.83;4.43;;;33.20;99.90;;;;;;5049401;28;20466;-68
2023/08/24 12:48:39;;;;;;;7.63;5.20;;;33.30;99.90;;;;;;5049147;28;20830;-68
2023/08/24 12:51:07;;;;;;;4.70;4.40;;;33.10;99.90;;;;;;5049149;28;20935;-68